createdAt,value
2022-07-27T00:01:13.237Z,48.60
2022-07-27T00:03:41.734Z,48.68
2022-07-27T00:06:09.499Z,48.63
2022-07-27T00:08:37.128Z,48.60
2022-07-27T00:11:05.098Z,48.46
2022-07-27T00:13:32.703Z,48.35
2022-07-27T00:16:00.372Z,48.15
2022-07-27T00:18:28.223Z,48.21
2022-07-27T00:20:55.952Z,48.15
2022-07-27T00:23:23.421Z,47.87
2022-07-27T00:25:51.359Z,47.92
2022-07-27T00:28:18.927Z,48.10
2022-07-27T00:30:46.792Z,47.68
2022-07-27T00:33:17.264Z,47.53
2022-07-27T00:35:45.999Z,47.51
2022-07-27T00:38:14.212Z,47.75
2022-07-27T00:40:41.845Z,47.39
2022-07-27T00:43:09.391Z,47.95
2022-07-27T00:45:37.172Z,47.97
2022-07-27T00:48:05.216Z,47.93
2022-07-27T00:50:32.913Z,48.05
2022-07-27T00:53:00.733Z,48.58
2022-07-27T00:55:28.486Z,48.64
2022-07-27T00:57:58.796Z,49.02
2022-07-27T01:00:28.356Z,49.30
2022-07-27T01:02:57.318Z,49.81
2022-07-27T01:05:36.148Z,49.42
2022-07-27T01:08:06.700Z,49.84
2022-07-27T01:10:34.761Z,48.91
2022-07-27T01:13:02.739Z,49.10
2022-07-27T01:15:31.074Z,48.69
2022-07-27T01:18:03.042Z,49.03
2022-07-27T01:20:31.001Z,48.19
2022-07-27T01:22:58.471Z,48.04
2022-07-27T01:25:26.284Z,47.93
2022-07-27T01:27:54.137Z,48.27
2022-07-27T01:30:27.725Z,48.45
2022-07-27T01:33:03.204Z,48.22
2022-07-27T01:35:31.188Z,48.18
2022-07-27T01:37:59.080Z,49.11
2022-07-27T01:40:27.034Z,49.35
2022-07-27T01:42:54.731Z,49.26
2022-07-27T01:45:22.637Z,50.32
2022-07-27T01:47:50.089Z,50.18
2022-07-27T01:50:17.551Z,50.27
2022-07-27T01:52:45.326Z,50.34
2022-07-27T01:55:12.936Z,50.19
2022-07-27T01:57:40.686Z,49.96
2022-07-27T02:00:13.772Z,50.08
2022-07-27T02:02:42.038Z,50.37
2022-07-27T02:05:12.646Z,51.11
2022-07-27T02:07:41.030Z,49.96
2022-07-27T02:10:10.037Z,49.09
2022-07-27T02:12:38.097Z,48.85
2022-07-27T02:15:19.661Z,48.47
2022-07-27T02:17:49.246Z,48.75
2022-07-27T02:20:19.771Z,49.53
2022-07-27T02:22:47.612Z,49.31
2022-07-27T02:25:17.326Z,49.30
2022-07-27T02:27:45.285Z,49.50
2022-07-27T02:30:13.654Z,50.94
2022-07-27T02:32:44.131Z,49.67
2022-07-27T02:35:18.703Z,49.76
2022-07-27T02:37:48.640Z,49.78
2022-07-27T02:40:17.600Z,49.38
2022-07-27T02:42:46.311Z,50.30
2022-07-27T02:45:17.183Z,49.15
2022-07-27T02:47:45.043Z,49.08
2022-07-27T02:50:12.846Z,48.68
2022-07-27T02:52:40.629Z,48.62
2022-07-27T02:55:09.065Z,49.19
2022-07-27T02:57:38.045Z,49.62
2022-07-27T03:00:13.620Z,49.97
2022-07-27T03:02:41.339Z,49.43
2022-07-27T03:05:10.743Z,50.80
2022-07-27T03:07:38.308Z,49.51
2022-07-27T03:10:06.583Z,50.55
2022-07-27T03:12:34.477Z,49.96
2022-07-27T03:15:01.942Z,49.87
2022-07-27T03:17:29.514Z,49.17
2022-07-27T03:19:57.307Z,49.72
2022-07-27T03:22:24.730Z,49.21
2022-07-27T03:24:52.199Z,49.37
2022-07-27T03:27:20.034Z,48.83
2022-07-27T03:29:47.536Z,48.75
2022-07-27T03:32:15.030Z,48.71
2022-07-27T03:34:42.800Z,48.86
2022-07-27T03:37:10.385Z,48.53
2022-07-27T03:39:37.961Z,48.31
2022-07-27T03:42:05.957Z,47.91
2022-07-27T03:44:33.519Z,47.97
2022-07-27T03:47:01.097Z,47.49
2022-07-27T03:49:28.922Z,47.49
2022-07-27T03:51:56.452Z,47.59
2022-07-27T03:54:23.952Z,47.39
2022-07-27T03:56:51.761Z,47.70
2022-07-27T03:59:19.258Z,48.19
2022-07-27T04:01:47.204Z,47.52
2022-07-27T04:04:15.226Z,47.57
2022-07-27T04:06:42.939Z,46.98
2022-07-27T04:09:10.455Z,47.18
2022-07-27T04:11:43.605Z,46.78
2022-07-27T04:14:12.954Z,46.68
2022-07-27T04:16:41.452Z,46.16
2022-07-27T04:19:09.473Z,46.22
2022-07-27T04:21:38.003Z,46.14
2022-07-27T04:24:07.108Z,46.02
2022-07-27T04:26:34.610Z,46.05
2022-07-27T04:29:02.125Z,46.56
2022-07-27T04:31:29.861Z,46.50
2022-07-27T04:33:57.591Z,46.47
2022-07-27T04:36:25.019Z,46.69
2022-07-27T04:38:52.765Z,46.44
2022-07-27T04:41:20.235Z,46.88
2022-07-27T04:43:47.710Z,46.02
2022-07-27T04:46:15.834Z,45.51
2022-07-27T04:48:48.818Z,44.91
2022-07-27T04:51:18.188Z,45.47
2022-07-27T04:53:53.539Z,44.75
2022-07-27T04:56:27.151Z,44.61
2022-07-27T04:58:57.741Z,44.88
2022-07-27T05:01:26.669Z,44.12
2022-07-27T05:03:56.252Z,43.95
2022-07-27T05:06:23.784Z,44.45
2022-07-27T05:08:51.339Z,44.01
2022-07-27T05:11:19.141Z,44.01
2022-07-27T05:13:46.622Z,43.80
2022-07-27T05:16:14.215Z,43.37
2022-07-27T05:18:42.277Z,43.38
2022-07-27T05:21:09.811Z,43.65
2022-07-27T05:23:37.345Z,43.34
2022-07-27T05:26:05.191Z,43.40
2022-07-27T05:28:32.676Z,44.67
2022-07-27T05:31:00.239Z,43.18
2022-07-27T05:33:28.243Z,43.61
2022-07-27T05:35:56.494Z,43.15
2022-07-27T05:38:24.040Z,43.02
2022-07-27T05:40:53.359Z,43.22
2022-07-27T05:43:20.970Z,42.78
2022-07-27T05:45:48.608Z,42.64
2022-07-27T05:48:16.454Z,42.79
2022-07-27T05:50:44.045Z,41.21
2022-07-27T05:53:11.567Z,40.89
2022-07-27T05:55:39.396Z,41.16
2022-07-27T05:58:26.063Z,41.64
2022-07-27T06:00:54.355Z,41.30
2022-07-27T06:03:22.905Z,40.82
2022-07-27T06:05:50.472Z,40.21
2022-07-27T06:08:18.025Z,39.28
2022-07-27T06:10:45.874Z,39.08
2022-07-27T06:13:13.972Z,39.10
2022-07-27T06:15:41.505Z,39.70
2022-07-27T06:18:16.801Z,39.53
2022-07-27T06:20:45.755Z,38.52
2022-07-27T06:23:13.672Z,38.94
2022-07-27T06:25:41.140Z,37.89
2022-07-27T06:28:09.354Z,37.57
2022-07-27T06:30:37.110Z,38.00
2022-07-27T06:33:06.172Z,37.18
2022-07-27T06:35:34.512Z,35.77
2022-07-27T06:38:05.848Z,36.76
2022-07-27T06:40:33.458Z,37.34
2022-07-27T06:43:01.054Z,36.24
2022-07-27T06:45:28.997Z,37.13
2022-07-27T06:47:56.499Z,36.13
2022-07-27T06:50:24.232Z,36.32
2022-07-27T06:52:52.163Z,35.55
2022-07-27T06:55:19.654Z,35.01
2022-07-27T06:57:47.391Z,35.19
2022-07-27T07:00:15.469Z,34.90
2022-07-27T07:02:56.400Z,35.99
2022-07-27T07:05:27.347Z,34.81
2022-07-27T07:07:55.518Z,34.47
2022-07-27T07:10:24.743Z,34.85
2022-07-27T07:12:56.059Z,33.15
2022-07-27T07:15:25.152Z,31.91
2022-07-27T07:17:54.344Z,31.55
2022-07-27T07:20:22.224Z,31.62
2022-07-27T07:22:50.386Z,32.69
2022-07-27T07:25:18.159Z,32.78
2022-07-27T07:27:45.656Z,31.67
2022-07-27T07:30:13.330Z,31.06
2022-07-27T07:32:41.130Z,29.78
2022-07-27T07:35:09.297Z,29.60
2022-07-27T07:37:36.789Z,30.47
2022-07-27T07:40:40.041Z,30.56
2022-07-27T07:42:56.498Z,29.78
2022-07-27T07:45:24.900Z,31.23
2022-07-27T07:47:52.952Z,29.72
2022-07-27T07:50:21.422Z,29.94
2022-07-27T07:52:50.893Z,30.14
2022-07-27T07:55:23.329Z,29.68
2022-07-27T07:57:51.193Z,30.15
2022-07-27T08:00:20.929Z,29.14
2022-07-27T08:02:49.747Z,28.52
2022-07-27T08:05:17.628Z,28.22
2022-07-27T08:07:45.946Z,28.85
2022-07-27T08:10:15.155Z,28.12
2022-07-27T08:12:45.043Z,27.73
2022-07-27T08:15:13.765Z,28.21
2022-07-27T08:17:42.625Z,26.91
2022-07-27T08:20:11.233Z,26.28
2022-07-27T08:22:39.026Z,27.33
2022-07-27T08:25:08.323Z,27.01
2022-07-27T08:27:40.681Z,27.98
2022-07-27T08:30:10.648Z,27.45
2022-07-27T08:32:55.168Z,26.27
2022-07-27T08:35:23.123Z,26.05
2022-07-27T08:37:52.692Z,27.33
2022-07-27T08:40:41.853Z,27.42
2022-07-27T08:43:13.253Z,27.33
2022-07-27T08:45:41.869Z,26.41
2022-07-27T08:48:14.004Z,25.94
2022-07-27T08:50:42.726Z,23.83
2022-07-27T08:53:13.172Z,24.92
2022-07-27T08:55:42.545Z,25.25
2022-07-27T08:58:12.306Z,24.57
2022-07-27T09:00:45.400Z,24.60
2022-07-27T09:03:19.026Z,24.73
2022-07-27T09:05:53.267Z,25.18
2022-07-27T09:08:28.843Z,25.43
2022-07-27T09:10:59.580Z,23.35
2022-07-27T09:13:34.784Z,25.33
2022-07-27T09:16:23.517Z,25.21
2022-07-27T09:19:00.754Z,25.42
2022-07-27T09:21:28.608Z,25.16
2022-07-27T09:24:29.781Z,24.76
2022-07-27T09:27:04.857Z,23.95
2022-07-27T09:29:37.136Z,23.59
2022-07-27T09:32:15.849Z,23.17
2022-07-27T09:34:44.142Z,24.71
2022-07-27T09:37:12.490Z,24.55
2022-07-27T09:39:40.151Z,24.28
2022-07-27T09:42:47.860Z,23.54
2022-07-27T09:45:04.185Z,22.63
2022-07-27T09:47:32.052Z,23.48
2022-07-27T09:50:20.829Z,23.81
2022-07-27T09:52:48.632Z,23.44
2022-07-27T09:55:19.981Z,23.28
2022-07-27T09:57:56.416Z,22.87
2022-07-27T10:00:25.796Z,22.46
2022-07-27T10:02:54.136Z,22.61
2022-07-27T10:05:22.981Z,22.52
2022-07-27T10:07:52.562Z,22.12
2022-07-27T10:10:20.922Z,22.68
2022-07-27T10:12:54.041Z,22.18
2022-07-27T10:15:24.079Z,21.64
2022-07-27T10:17:59.165Z,21.42
2022-07-27T10:20:27.389Z,20.89
2022-07-27T10:22:58.661Z,19.84
2022-07-27T10:25:32.518Z,20.63
2022-07-27T10:28:17.890Z,20.85
2022-07-27T10:30:48.316Z,19.89
2022-07-27T10:33:42.806Z,20.22
2022-07-27T10:36:19.665Z,19.96
2022-07-27T10:38:49.766Z,19.88
2022-07-27T10:41:40.898Z,20.66
2022-07-27T10:44:14.970Z,19.37
2022-07-27T10:46:46.708Z,19.84
2022-07-27T10:49:25.000Z,19.57
2022-07-27T10:51:53.299Z,19.63
2022-07-27T10:54:52.691Z,19.50
2022-07-27T10:57:26.945Z,19.76
2022-07-27T11:00:14.731Z,20.26
2022-07-27T11:02:42.720Z,19.37
2022-07-27T11:08:35.501Z,19.60
2022-07-27T11:10:50.489Z,19.50
2022-07-27T11:13:19.199Z,19.04
2022-07-27T11:16:22.841Z,18.75
2022-07-27T11:18:54.966Z,19.11
2022-07-27T11:21:28.805Z,19.36
2022-07-27T11:24:05.959Z,18.44
2022-07-27T11:26:39.511Z,19.14
2022-07-27T11:29:09.371Z,18.32
2022-07-27T11:31:54.694Z,19.60
2022-07-27T11:34:35.809Z,19.22
2022-07-27T11:37:13.806Z,19.45
2022-07-27T11:39:59.747Z,19.43
2022-07-27T11:42:38.424Z,19.74
2022-07-27T11:45:07.546Z,19.10
2022-07-27T11:47:36.059Z,19.43
2022-07-27T11:50:08.284Z,18.82
2022-07-27T11:52:36.131Z,18.92
2022-07-27T11:55:03.942Z,19.28
2022-07-27T11:57:33.032Z,19.66
2022-07-27T12:00:02.209Z,19.73
2022-07-27T12:02:51.325Z,19.91
2022-07-27T12:05:19.338Z,20.53
2022-07-27T12:07:47.411Z,19.73
2022-07-27T12:10:14.900Z,19.90
2022-07-27T12:12:49.232Z,20.43
2022-07-27T12:18:06.732Z,20.13
2022-07-27T12:20:35.553Z,19.69
2022-07-27T12:23:07.825Z,19.80
2022-07-27T12:25:36.375Z,19.90
2022-07-27T12:28:13.521Z,19.77
2022-07-27T12:30:49.432Z,20.18
2022-07-27T12:33:35.623Z,19.25
2022-07-27T12:36:05.772Z,20.26
2022-07-27T12:38:51.501Z,19.57
2022-07-27T12:41:26.647Z,19.12
2022-07-27T12:44:09.285Z,19.48
2022-07-27T12:46:56.398Z,19.29
2022-07-27T12:49:34.371Z,19.95
2022-07-27T12:52:07.017Z,20.13
2022-07-27T12:54:34.755Z,19.80
2022-07-27T12:57:02.767Z,21.51
2022-07-27T12:59:30.336Z,21.04
2022-07-27T13:01:57.965Z,20.55
2022-07-27T13:04:26.137Z,20.98
2022-07-27T13:06:53.773Z,20.63
2022-07-27T13:09:21.302Z,19.55
2022-07-27T13:11:49.118Z,20.22
2022-07-27T13:14:16.596Z,19.52
2022-07-27T13:16:44.247Z,19.66
2022-07-27T13:19:15.349Z,20.11
2022-07-27T13:21:43.359Z,20.76
2022-07-27T13:24:11.493Z,19.86
2022-07-27T13:26:40.821Z,20.02
2022-07-27T13:29:08.332Z,20.38
2022-07-27T13:31:37.116Z,19.78
2022-07-27T13:34:05.026Z,19.41
2022-07-27T13:36:32.494Z,19.64
2022-07-27T13:38:59.994Z,19.54
2022-07-27T13:41:27.880Z,19.70
2022-07-27T13:43:55.366Z,19.83
2022-07-27T13:46:22.912Z,19.07
2022-07-27T13:48:50.800Z,18.96
2022-07-27T13:51:18.345Z,19.05
2022-07-27T13:53:46.842Z,19.23
2022-07-27T13:56:14.665Z,19.22
2022-07-27T13:58:42.671Z,19.85
2022-07-27T14:01:11.368Z,18.80
2022-07-27T14:03:39.612Z,18.60
2022-07-27T14:06:07.206Z,17.86
2022-07-27T14:08:36.615Z,18.91
2022-07-27T14:11:05.202Z,18.98
2022-07-27T14:13:32.847Z,18.18
2022-07-27T14:16:01.680Z,18.02
2022-07-27T14:18:30.935Z,18.49
2022-07-27T14:21:00.736Z,18.06
2022-07-27T14:23:28.875Z,18.21
2022-07-27T14:25:58.488Z,18.61
2022-07-27T14:28:27.754Z,18.77
2022-07-27T14:30:56.361Z,18.78
2022-07-27T14:33:25.852Z,18.77
2022-07-27T14:36:00.051Z,18.60
2022-07-27T14:38:30.884Z,18.90
2022-07-27T14:41:00.828Z,18.66
2022-07-27T14:43:29.823Z,18.75
2022-07-27T14:45:57.612Z,18.68
2022-07-27T14:48:37.118Z,18.22
2022-07-27T14:51:12.961Z,19.03
2022-07-27T14:53:40.515Z,18.39
2022-07-27T14:56:07.991Z,18.02
2022-07-27T14:58:35.819Z,18.51
2022-07-27T15:01:03.618Z,18.42
2022-07-27T15:03:31.255Z,18.03
2022-07-27T15:05:59.038Z,17.65
2022-07-27T15:08:26.603Z,17.45
2022-07-27T15:10:54.245Z,17.87
2022-07-27T15:13:22.019Z,18.02
2022-07-27T15:15:50.845Z,18.95
2022-07-27T15:18:21.030Z,19.05
2022-07-27T15:20:48.865Z,18.68
2022-07-27T15:23:16.787Z,18.77
2022-07-27T15:25:44.542Z,18.38
2022-07-27T15:28:12.863Z,18.83
2022-07-27T15:30:41.027Z,18.24
2022-07-27T15:33:08.679Z,18.08
2022-07-27T15:35:36.468Z,17.78
2022-07-27T15:38:04.015Z,18.19
2022-07-27T15:40:37.830Z,18.23
2022-07-27T15:43:06.951Z,18.32
2022-07-27T15:45:38.712Z,18.12
2022-07-27T15:48:08.563Z,18.46
2022-07-27T15:50:37.499Z,18.92
2022-07-27T15:53:06.081Z,19.76
2022-07-27T15:55:34.438Z,19.72
2022-07-27T15:58:01.945Z,20.06
2022-07-27T16:00:29.672Z,20.11
2022-07-27T16:02:57.562Z,20.45
2022-07-27T16:05:25.539Z,20.27
2022-07-27T16:07:53.049Z,20.22
2022-07-27T16:10:20.872Z,20.10
2022-07-27T16:12:48.778Z,20.59
2022-07-27T16:15:16.304Z,20.23
2022-07-27T16:17:45.617Z,20.52
2022-07-27T16:20:13.467Z,20.82
2022-07-27T16:22:41.063Z,21.41
2022-07-27T16:25:08.951Z,21.56
2022-07-27T16:27:36.449Z,21.54
2022-07-27T16:30:04.487Z,21.47
2022-07-27T16:32:32.385Z,21.35
2022-07-27T16:34:59.909Z,21.06
2022-07-27T16:37:27.473Z,20.95
2022-07-27T16:39:55.278Z,21.21
2022-07-27T16:42:22.824Z,20.95
2022-07-27T16:44:50.382Z,20.92
2022-07-27T16:47:18.169Z,21.08
2022-07-27T16:49:45.717Z,21.19
2022-07-27T16:52:13.555Z,21.30
2022-07-27T16:54:41.321Z,21.56
2022-07-27T16:57:10.626Z,21.79
2022-07-27T16:59:41.714Z,22.71
2022-07-27T17:02:09.654Z,23.04
2022-07-27T17:04:37.927Z,22.54
2022-07-27T17:07:06.212Z,22.70
2022-07-27T17:09:41.317Z,22.79
2022-07-27T17:12:09.146Z,22.84
2022-07-27T17:14:36.664Z,22.82
2022-07-27T17:17:04.545Z,23.79
2022-07-27T17:19:32.095Z,25.50
2022-07-27T17:21:59.746Z,27.30
2022-07-27T17:24:27.589Z,27.01
2022-07-27T17:26:55.158Z,26.70
2022-07-27T17:29:23.737Z,27.19
2022-07-27T17:31:51.829Z,27.38
2022-07-27T17:34:19.510Z,27.75
2022-07-27T17:36:47.220Z,27.13
2022-07-27T17:39:15.261Z,26.73
2022-07-27T17:41:43.626Z,26.75
2022-07-27T17:44:11.471Z,27.70
2022-07-27T17:46:39.365Z,27.84
2022-07-27T17:49:07.039Z,28.78
2022-07-27T17:51:37.116Z,27.84
2022-07-27T17:54:05.202Z,28.44
2022-07-27T17:56:32.714Z,28.12
2022-07-27T17:59:14.388Z,27.78
2022-07-27T18:01:48.697Z,27.55
2022-07-27T18:04:16.683Z,28.10
2022-07-27T18:06:44.318Z,28.03
2022-07-27T18:09:12.174Z,28.14
2022-07-27T18:11:40.493Z,28.10
2022-07-27T18:14:08.181Z,28.00
2022-07-27T18:16:40.362Z,28.12
2022-07-27T18:19:08.940Z,27.78
2022-07-27T18:21:36.570Z,27.78
2022-07-27T18:24:04.371Z,27.73
2022-07-27T18:26:32.170Z,27.83
2022-07-27T18:28:59.792Z,27.70
2022-07-27T18:31:27.648Z,27.56
2022-07-27T18:33:56.079Z,28.16
2022-07-27T18:36:23.703Z,29.15
2022-07-27T18:38:51.628Z,29.17
2022-07-27T18:41:19.479Z,29.47
2022-07-27T18:43:56.342Z,29.38
2022-07-27T18:46:24.243Z,30.45
2022-07-27T18:48:51.866Z,31.54
2022-07-27T18:51:19.449Z,31.32
2022-07-27T18:53:48.871Z,32.84
2022-07-27T18:56:16.489Z,32.90
2022-07-27T18:58:44.048Z,33.27
2022-07-27T19:01:11.932Z,34.51
2022-07-27T19:03:40.631Z,33.84
2022-07-27T19:06:11.341Z,35.30
2022-07-27T19:08:45.795Z,35.65
2022-07-27T19:11:13.397Z,35.69
2022-07-27T19:13:41.233Z,35.26
2022-07-27T19:16:09.630Z,35.16
2022-07-27T19:18:37.192Z,34.88
2022-07-27T19:21:04.720Z,34.70
2022-07-27T19:23:32.740Z,35.64
2022-07-27T19:26:00.658Z,35.72
2022-07-27T19:28:28.343Z,36.15
2022-07-27T19:30:56.176Z,37.69
2022-07-27T19:33:23.777Z,38.45
2022-07-27T19:35:52.592Z,37.02
2022-07-27T19:38:20.464Z,37.03
2022-07-27T19:40:48.357Z,36.61
2022-07-27T19:43:15.973Z,36.80
2022-07-27T19:45:43.884Z,36.61
2022-07-27T19:48:12.007Z,37.68
2022-07-27T19:50:39.925Z,38.58
2022-07-27T19:53:08.091Z,39.93
2022-07-27T19:55:36.148Z,39.52
2022-07-27T19:58:04.167Z,38.85
2022-07-27T20:00:32.380Z,38.61
2022-07-27T20:03:00.482Z,39.20
2022-07-27T20:05:28.196Z,39.43
2022-07-27T20:07:55.735Z,40.99
2022-07-27T20:10:25.354Z,40.58
2022-07-27T20:12:53.136Z,40.40
2022-07-27T20:15:22.317Z,41.51
2022-07-27T20:17:50.743Z,41.66
2022-07-27T20:20:18.390Z,41.36
2022-07-27T20:22:46.112Z,41.39
2022-07-27T20:25:14.962Z,41.77
2022-07-27T20:27:42.865Z,41.42
2022-07-27T20:30:11.762Z,41.28
2022-07-27T20:32:39.603Z,41.00
2022-07-27T20:35:07.397Z,41.38
2022-07-27T20:37:35.175Z,40.03
2022-07-27T20:40:05.335Z,40.38
2022-07-27T20:42:33.106Z,39.23
2022-07-27T20:45:00.694Z,39.28
2022-07-27T20:47:34.318Z,38.53
2022-07-27T20:50:02.340Z,38.90
2022-07-27T20:52:30.204Z,39.22
2022-07-27T20:54:57.876Z,37.96
2022-07-27T20:57:25.404Z,37.28
2022-07-27T20:59:53.280Z,38.43
2022-07-27T21:02:20.951Z,37.47
2022-07-27T21:04:48.598Z,36.70
2022-07-27T21:07:16.365Z,36.90
2022-07-27T21:09:43.875Z,37.07
2022-07-27T21:12:11.419Z,37.68
2022-07-27T21:14:39.238Z,39.62
2022-07-27T21:17:06.865Z,39.25
2022-07-27T21:19:34.616Z,39.01
2022-07-27T21:22:02.438Z,38.71
2022-07-27T21:24:29.985Z,38.78
2022-07-27T21:27:00.954Z,38.82
2022-07-27T21:29:32.420Z,39.82
2022-07-27T21:31:59.930Z,41.49
2022-07-27T21:34:27.582Z,41.12
2022-07-27T21:36:55.547Z,40.56
2022-07-27T21:39:24.104Z,41.93
2022-07-27T21:41:51.711Z,40.38
2022-07-27T21:44:19.457Z,40.56
2022-07-27T21:46:48.459Z,41.35
2022-07-27T21:49:16.065Z,40.50
2022-07-27T21:51:43.870Z,39.64
2022-07-27T21:54:11.710Z,40.21
2022-07-27T21:56:41.086Z,40.19
2022-07-27T21:59:10.253Z,39.75
2022-07-27T22:01:37.898Z,39.25
2022-07-27T22:04:06.305Z,39.43
2022-07-27T22:06:34.023Z,38.85
2022-07-27T22:09:01.594Z,38.08
2022-07-27T22:11:29.339Z,38.02
2022-07-27T22:13:56.825Z,37.69
2022-07-27T22:16:24.484Z,37.16
2022-07-27T22:18:52.334Z,36.79
2022-07-27T22:21:19.822Z,36.60
2022-07-27T22:23:49.255Z,36.36
2022-07-27T22:26:17.467Z,36.29
2022-07-27T22:28:45.007Z,36.14
2022-07-27T22:31:21.150Z,35.74
2022-07-27T22:33:51.082Z,35.82
2022-07-27T22:36:18.996Z,36.20
2022-07-27T22:38:46.537Z,36.33
2022-07-27T22:41:14.381Z,35.87
2022-07-27T22:43:41.886Z,36.35
2022-07-27T22:46:10.125Z,35.77
2022-07-27T22:48:38.412Z,36.07
2022-07-27T22:51:05.913Z,36.49
2022-07-27T22:53:33.893Z,36.87
2022-07-27T22:56:01.635Z,36.77
2022-07-27T22:58:29.151Z,36.21
2022-07-27T23:00:59.694Z,35.86
2022-07-27T23:03:27.831Z,36.04
2022-07-27T23:05:55.304Z,36.59
2022-07-27T23:08:22.825Z,36.41
2022-07-27T23:10:50.628Z,36.73
2022-07-27T23:13:19.365Z,36.63
2022-07-27T23:15:47.538Z,36.52
2022-07-27T23:18:16.818Z,36.55
2022-07-27T23:20:45.122Z,36.18
2022-07-27T23:23:16.794Z,35.46
2022-07-27T23:25:46.032Z,36.06
2022-07-27T23:28:15.220Z,34.87
2022-07-27T23:30:42.912Z,34.61
2022-07-27T23:33:10.775Z,34.63
2022-07-27T23:35:38.394Z,34.32
2022-07-27T23:38:05.976Z,34.32
2022-07-27T23:40:33.727Z,33.96
2022-07-27T23:43:01.307Z,33.96
2022-07-27T23:45:28.908Z,33.95
2022-07-27T23:47:56.658Z,33.93
2022-07-27T23:50:24.210Z,34.05
2022-07-27T23:52:51.803Z,33.75
2022-07-27T23:55:19.552Z,33.66
2022-07-27T23:57:47.335Z,34.61
